createdAt,value
2022-09-07T00:01:07.897Z,16.23
2022-09-07T00:03:36.669Z,16.24
2022-09-07T00:06:08.292Z,16.26
2022-09-07T00:08:36.381Z,16.29
2022-09-07T00:11:06.628Z,16.32
2022-09-07T00:13:37.226Z,16.31
2022-09-07T00:16:09.016Z,16.31
2022-09-07T00:18:37.113Z,16.35
2022-09-07T00:21:07.720Z,16.37
2022-09-07T00:23:37.148Z,16.40
2022-09-07T00:26:07.999Z,16.42
2022-09-07T00:28:36.470Z,16.38
2022-09-07T00:31:06.664Z,16.35
2022-09-07T00:33:34.658Z,16.32
2022-09-07T00:36:02.995Z,16.28
2022-09-07T00:38:31.107Z,16.27
2022-09-07T00:40:59.367Z,16.24
2022-09-07T00:43:32.959Z,16.24
2022-09-07T00:46:01.543Z,16.24
2022-09-07T00:48:35.939Z,16.22
2022-09-07T00:51:08.397Z,16.23
2022-09-07T00:53:40.212Z,16.27
2022-09-07T00:56:09.395Z,16.24
2022-09-07T00:58:41.128Z,16.19
2022-09-07T01:01:10.150Z,16.14
2022-09-07T01:03:43.572Z,16.14
2022-09-07T01:06:17.575Z,16.19
2022-09-07T01:08:48.166Z,16.24
2022-09-07T01:11:16.521Z,16.29
2022-09-07T01:13:46.523Z,16.30
2022-09-07T01:16:25.210Z,16.33
2022-09-07T01:19:19.206Z,16.36
2022-09-07T01:21:59.759Z,16.40
2022-09-07T01:24:44.643Z,16.39
2022-09-07T01:28:00.487Z,16.41
2022-09-07T01:30:31.653Z,16.46
2022-09-07T01:33:24.372Z,16.44
2022-09-07T01:36:03.573Z,16.43
2022-09-07T01:38:38.047Z,16.42
2022-09-07T01:41:11.280Z,16.42
2022-09-07T01:43:46.489Z,16.38
2022-09-07T01:46:20.164Z,16.37
2022-09-07T01:48:51.566Z,16.36
2022-09-07T01:51:22.438Z,16.35
2022-09-07T01:53:54.102Z,16.33
2022-09-07T01:56:28.805Z,16.33
2022-09-07T01:59:01.667Z,16.32
2022-09-07T02:01:34.189Z,16.28
2022-09-07T02:04:07.320Z,16.26
2022-09-07T02:06:42.769Z,16.23
2022-09-07T02:09:18.903Z,16.20
2022-09-07T02:11:50.199Z,16.20
2022-09-07T02:14:23.618Z,16.19
2022-09-07T02:16:58.302Z,16.17
2022-09-07T02:19:30.595Z,16.15
2022-09-07T02:22:02.594Z,16.13
2022-09-07T02:24:35.354Z,16.13
2022-09-07T02:27:07.880Z,16.11
2022-09-07T02:29:38.165Z,16.08
2022-09-07T02:32:06.726Z,16.03
2022-09-07T02:34:34.931Z,15.99
2022-09-07T02:37:07.196Z,15.98
2022-09-07T02:39:35.381Z,15.99
2022-09-07T02:42:03.463Z,16.02
2022-09-07T02:44:34.809Z,16.08
2022-09-07T02:47:20.366Z,16.12
2022-09-07T02:50:10.863Z,16.16
2022-09-07T02:52:48.430Z,16.21
2022-09-07T02:55:27.240Z,16.23
2022-09-07T02:58:10.730Z,16.23
2022-09-07T03:00:46.102Z,16.27
2022-09-07T03:03:23.640Z,16.27
2022-09-07T03:05:56.440Z,16.28
2022-09-07T03:08:28.464Z,16.32
2022-09-07T03:10:58.872Z,16.37
2022-09-07T03:13:28.970Z,16.41
2022-09-07T03:15:57.977Z,16.42
2022-09-07T03:18:28.858Z,16.45
2022-09-07T03:20:57.784Z,16.46
2022-09-07T03:23:26.017Z,16.46
2022-09-07T03:25:54.324Z,16.48
2022-09-07T03:28:22.442Z,16.47
2022-09-07T03:30:50.657Z,16.49
2022-09-07T03:33:19.073Z,16.48
2022-09-07T03:35:58.804Z,16.41
2022-09-07T03:38:27.112Z,16.36
2022-09-07T03:41:02.185Z,16.30
2022-09-07T03:43:31.068Z,16.28
2022-09-07T03:46:00.365Z,16.23
2022-09-07T03:48:28.868Z,16.23
2022-09-07T03:50:59.673Z,16.23
2022-09-07T03:53:28.441Z,16.25
2022-09-07T03:56:00.809Z,16.26
2022-09-07T03:58:31.052Z,16.24
2022-09-07T04:00:59.704Z,16.23
2022-09-07T04:03:28.581Z,16.26
2022-09-07T04:05:59.199Z,16.28
2022-09-07T04:08:29.264Z,16.27
2022-09-07T04:10:57.958Z,16.27
2022-09-07T04:13:26.543Z,16.22
2022-09-07T04:15:54.734Z,16.21
2022-09-07T04:18:23.542Z,16.24
2022-09-07T04:20:51.971Z,16.27
2022-09-07T04:23:21.848Z,16.31
2022-09-07T04:25:50.919Z,16.37
2022-09-07T04:28:21.212Z,16.45
2022-09-07T04:30:49.562Z,16.54
2022-09-07T04:33:17.764Z,16.65
2022-09-07T04:35:45.960Z,16.70
2022-09-07T04:38:17.463Z,16.75
2022-09-07T04:40:46.933Z,16.81
2022-09-07T04:43:14.984Z,16.88
2022-09-07T04:45:43.195Z,16.90
2022-09-07T04:48:11.337Z,16.90
2022-09-07T04:50:39.409Z,16.93
2022-09-07T04:53:07.574Z,16.95
2022-09-07T04:55:35.706Z,16.96
2022-09-07T04:58:05.229Z,17.00
2022-09-07T05:00:33.507Z,17.11
2022-09-07T05:03:01.626Z,17.21
2022-09-07T05:05:29.751Z,17.35
2022-09-07T05:07:57.879Z,17.45
2022-09-07T05:10:26.035Z,17.56
2022-09-07T05:12:54.093Z,17.62
2022-09-07T05:15:23.538Z,17.66
2022-09-07T05:17:52.400Z,17.72
2022-09-07T05:20:21.561Z,17.77
2022-09-07T05:22:49.734Z,17.84
2022-09-07T05:25:17.825Z,17.95
2022-09-07T05:27:46.637Z,17.97
2022-09-07T05:33:08.049Z,18.00
2022-09-07T05:35:36.575Z,18.04
2022-09-07T05:38:04.741Z,18.06
2022-09-07T05:40:38.485Z,18.07
2022-09-07T05:43:09.907Z,18.07
2022-09-07T05:45:37.999Z,18.09
2022-09-07T05:48:07.566Z,18.09
2022-09-07T05:50:35.806Z,18.15
2022-09-07T05:53:04.392Z,18.19
2022-09-07T05:55:32.837Z,18.21
2022-09-07T05:58:00.902Z,18.23
2022-09-07T06:00:29.284Z,18.25
2022-09-07T06:02:57.587Z,18.29
2022-09-07T06:05:27.117Z,18.39
2022-09-07T06:07:55.129Z,18.51
2022-09-07T06:13:11.465Z,18.55
2022-09-07T06:15:40.071Z,18.58
2022-09-07T06:18:08.197Z,18.70
2022-09-07T06:20:37.845Z,18.82
2022-09-07T06:23:07.325Z,18.92
2022-09-07T06:25:35.636Z,18.95
2022-09-07T06:28:04.112Z,18.98
2022-09-07T06:30:32.195Z,19.07
2022-09-07T06:33:00.346Z,19.12
2022-09-07T06:35:28.505Z,19.12
2022-09-07T06:37:58.293Z,19.22
2022-09-07T06:40:26.421Z,19.31
2022-09-07T06:42:54.445Z,19.37
2022-09-07T06:45:22.598Z,19.51
2022-09-07T06:47:54.358Z,19.61
2022-09-07T06:50:22.652Z,19.68
2022-09-07T06:55:45.646Z,19.71
2022-09-07T06:58:13.758Z,19.74
2022-09-07T07:00:41.920Z,19.77
2022-09-07T07:03:10.191Z,19.77
2022-09-07T07:05:38.351Z,19.87
2022-09-07T07:08:06.458Z,19.96
2022-09-07T07:10:39.309Z,20.07
2022-09-07T07:13:08.838Z,20.18
2022-09-07T07:15:37.009Z,20.28
2022-09-07T07:18:19.975Z,20.34
2022-09-07T07:20:49.206Z,20.41
2022-09-07T07:23:17.312Z,20.53
2022-09-07T07:25:45.525Z,20.63
2022-09-07T07:31:09.813Z,20.77
2022-09-07T07:33:39.771Z,20.99
2022-09-07T07:36:13.251Z,21.20
2022-09-07T07:44:24.989Z,21.84
2022-09-07T07:46:53.121Z,21.92
2022-09-07T07:49:21.511Z,21.96
2022-09-07T07:54:37.988Z,22.03
2022-09-07T07:57:06.379Z,22.15
2022-09-07T07:59:36.328Z,22.29
2022-09-07T08:02:05.896Z,22.40
2022-09-07T08:04:34.815Z,22.51
2022-09-07T08:07:09.562Z,22.64
2022-09-07T08:09:38.172Z,22.66
2022-09-07T08:12:06.534Z,22.59
2022-09-07T08:14:40.937Z,22.49
2022-09-07T08:17:09.094Z,22.47
2022-09-07T08:19:37.131Z,22.38
2022-09-07T08:22:05.370Z,22.29
2022-09-07T08:24:33.597Z,22.18
2022-09-07T08:27:01.863Z,22.10
2022-09-07T08:29:33.530Z,22.08
2022-09-07T08:32:06.594Z,21.89
2022-09-07T08:34:37.345Z,21.87
2022-09-07T08:37:05.505Z,21.88
2022-09-07T08:39:33.549Z,21.80
2022-09-07T08:42:34.515Z,21.81
2022-09-07T08:45:07.393Z,21.84
2022-09-07T08:47:42.322Z,21.92
2022-09-07T08:50:15.847Z,21.95
2022-09-07T08:52:50.193Z,22.12
2022-09-07T08:55:22.573Z,22.31
2022-09-07T08:57:58.142Z,22.46
2022-09-07T09:00:27.071Z,22.63
2022-09-07T09:05:58.872Z,22.95
2022-09-07T09:08:44.387Z,23.12
2022-09-07T09:11:17.646Z,23.23
2022-09-07T09:13:56.311Z,23.17
2022-09-07T09:16:33.969Z,23.11
2022-09-07T09:19:20.349Z,23.08
2022-09-07T09:21:49.032Z,23.11
2022-09-07T09:24:19.123Z,23.04
2022-09-07T09:26:54.045Z,22.92
2022-09-07T09:29:23.981Z,22.90
2022-09-07T09:31:53.551Z,22.88
2022-09-07T09:34:24.057Z,22.75
2022-09-07T09:36:55.059Z,22.64
2022-09-07T09:39:30.928Z,22.62
2022-09-07T09:42:02.659Z,22.60
2022-09-07T09:44:35.401Z,22.57
2022-09-07T09:49:54.702Z,22.55
2022-09-07T09:52:29.722Z,22.57
2022-09-07T09:55:23.265Z,22.51
2022-09-07T10:01:21.276Z,22.68
2022-09-07T10:04:00.961Z,22.93
2022-09-07T10:06:19.794Z,23.21
2022-09-07T10:08:56.557Z,23.36
2022-09-07T10:14:33.331Z,23.89
2022-09-07T10:17:02.955Z,24.17
2022-09-07T10:19:36.724Z,24.44
2022-09-07T10:22:21.165Z,24.49
2022-09-07T10:24:49.309Z,24.55
2022-09-07T10:27:22.035Z,24.72
2022-09-07T10:29:50.283Z,24.94
2022-09-07T10:32:27.801Z,25.21
2022-09-07T10:35:08.459Z,25.39
2022-09-07T10:37:50.642Z,25.56
2022-09-07T10:40:28.242Z,25.40
2022-09-07T10:43:22.427Z,25.39
2022-09-07T10:46:06.204Z,25.56
2022-09-07T10:48:42.731Z,25.71
2022-09-07T10:51:15.405Z,25.84
2022-09-07T10:56:52.382Z,25.74
2022-09-07T11:02:31.262Z,25.78
2022-09-07T11:05:08.525Z,25.71
2022-09-07T11:07:54.850Z,25.66
2022-09-07T11:10:33.656Z,25.55
2022-09-07T11:13:06.037Z,24.97
2022-09-07T11:15:41.476Z,24.71
2022-09-07T11:18:17.431Z,24.53
2022-09-07T11:20:55.017Z,24.48
2022-09-07T11:23:29.572Z,24.39
2022-09-07T11:26:07.511Z,24.31
2022-09-07T11:28:47.565Z,24.37
2022-09-07T11:31:22.561Z,24.30
2022-09-07T11:36:56.233Z,24.24
2022-09-07T11:39:30.432Z,24.34
2022-09-07T11:42:42.644Z,24.54
2022-09-07T11:44:57.012Z,24.92
2022-09-07T11:47:29.301Z,25.08
2022-09-07T11:49:59.474Z,25.15
2022-09-07T11:52:35.649Z,25.40
2022-09-07T11:55:08.178Z,25.57
2022-09-07T11:57:54.902Z,25.56
2022-09-07T12:00:25.042Z,25.82
2022-09-07T12:03:31.375Z,26.08
2022-09-07T12:06:29.811Z,26.52
2022-09-07T12:09:19.907Z,26.80
2022-09-07T12:12:20.680Z,27.23
2022-09-07T12:15:01.853Z,27.59
2022-09-07T12:17:45.677Z,27.63
2022-09-07T12:20:17.248Z,27.62
2022-09-07T12:23:04.292Z,27.86
2022-09-07T12:25:34.536Z,28.09
2022-09-07T12:28:03.162Z,28.33
2022-09-07T12:30:58.656Z,28.45
2022-09-07T12:33:30.949Z,28.30
2022-09-07T12:36:01.055Z,28.23
2022-09-07T12:39:10.684Z,28.17
2022-09-07T12:41:47.281Z,28.11
2022-09-07T12:44:29.263Z,27.87
2022-09-07T12:47:02.113Z,27.81
2022-09-07T12:50:10.147Z,27.58
2022-09-07T12:52:51.099Z,27.68
2022-09-07T12:55:31.445Z,28.30
2022-09-07T12:58:14.772Z,29.38
2022-09-07T13:00:56.093Z,30.85
2022-09-07T13:03:51.862Z,32.92
2022-09-07T13:07:06.080Z,35.24
2022-09-07T13:09:37.731Z,37.36
2022-09-07T13:15:34.684Z,40.07
2022-09-07T13:18:03.648Z,40.78
2022-09-07T13:20:39.148Z,41.43
2022-09-07T13:23:24.605Z,41.61
2022-09-07T13:25:59.968Z,42.08
2022-09-07T13:28:38.243Z,42.05
2022-09-07T13:31:33.601Z,42.82
2022-09-07T13:34:01.706Z,43.33
2022-09-07T13:36:41.602Z,42.68
2022-09-07T13:39:15.191Z,42.89
2022-09-07T13:41:48.931Z,43.15
2022-09-07T13:44:25.895Z,42.95
2022-09-07T13:47:09.857Z,42.50
2022-09-07T13:49:55.864Z,42.73
2022-09-07T13:52:33.363Z,42.92
2022-09-07T13:55:12.453Z,43.25
2022-09-07T13:57:51.944Z,43.69
2022-09-07T14:00:20.855Z,44.41
2022-09-07T14:02:56.557Z,44.60
2022-09-07T14:05:25.474Z,44.18
2022-09-07T14:07:54.855Z,43.36
2022-09-07T14:10:25.098Z,43.04
2022-09-07T14:12:55.313Z,42.19
2022-09-07T14:15:28.524Z,41.72
2022-09-07T14:18:04.512Z,40.56
2022-09-07T14:20:38.109Z,39.86
2022-09-07T14:23:12.967Z,39.11
2022-09-07T14:28:31.559Z,39.61
2022-09-07T14:31:00.229Z,39.48
2022-09-07T14:33:29.870Z,38.32
2022-09-07T14:35:59.308Z,36.95
2022-09-07T14:41:22.099Z,34.69
2022-09-07T14:43:54.720Z,34.44
2022-09-07T14:46:26.120Z,35.07
2022-09-07T14:48:57.129Z,35.11
2022-09-07T14:51:35.192Z,34.74
2022-09-07T14:54:07.476Z,34.69
2022-09-07T14:56:37.654Z,34.65
2022-09-07T14:59:33.983Z,34.87
2022-09-07T15:02:35.203Z,34.69
2022-09-07T15:05:33.119Z,34.85
2022-09-07T15:08:02.821Z,34.30
2022-09-07T15:10:37.169Z,32.90
2022-09-07T15:13:07.506Z,31.66
2022-09-07T15:15:37.620Z,30.71
2022-09-07T15:18:09.235Z,29.85
2022-09-07T15:20:39.854Z,29.15
2022-09-07T15:23:12.634Z,28.63
2022-09-07T15:25:46.570Z,28.49
2022-09-07T15:34:03.118Z,27.47
2022-09-07T15:36:32.086Z,27.07
2022-09-07T15:39:01.130Z,26.60
2022-09-07T15:41:30.824Z,26.31
2022-09-07T15:44:00.567Z,26.25
2022-09-07T15:46:28.661Z,26.20
2022-09-07T15:48:58.330Z,26.02
2022-09-07T15:54:15.970Z,25.42
2022-09-07T15:57:48.418Z,25.16
2022-09-07T15:59:33.477Z,25.20
2022-09-07T16:02:01.976Z,25.32
2022-09-07T16:04:30.851Z,25.35
2022-09-07T16:07:01.725Z,25.24
2022-09-07T16:09:29.799Z,25.03
2022-09-07T16:13:00.122Z,24.80
2022-09-07T16:14:47.218Z,24.53
2022-09-07T16:20:03.640Z,24.04
2022-09-07T16:25:20.055Z,23.57
2022-09-07T16:27:50.024Z,23.39
2022-09-07T16:30:18.146Z,23.29
2022-09-07T16:32:46.246Z,23.15
2022-09-07T16:35:14.389Z,22.96
2022-09-07T16:38:43.578Z,22.83
2022-09-07T16:40:30.820Z,22.67
2022-09-07T16:43:00.095Z,22.50
2022-09-07T16:48:16.432Z,22.13
2022-09-07T16:51:00.424Z,21.92
2022-09-07T16:53:29.845Z,21.78
2022-09-07T16:56:01.889Z,21.62
2022-09-07T16:58:36.117Z,21.46
2022-09-07T17:01:05.966Z,21.33
2022-09-07T17:03:34.510Z,21.20
2022-09-07T17:06:03.456Z,21.06
2022-09-07T17:08:31.474Z,20.92
2022-09-07T17:11:01.062Z,20.75
2022-09-07T17:13:29.064Z,20.64
2022-09-07T17:16:03.206Z,20.53
2022-09-07T17:21:19.972Z,20.32
2022-09-07T17:23:54.861Z,20.25
2022-09-07T17:26:27.035Z,20.17
2022-09-07T17:29:00.087Z,20.13
2022-09-07T17:34:21.691Z,20.06
2022-09-07T17:36:49.826Z,20.09
2022-09-07T17:39:19.109Z,20.12
2022-09-07T17:41:48.127Z,20.12
2022-09-07T17:44:16.877Z,20.08
2022-09-07T17:46:46.324Z,20.03
2022-09-07T17:49:16.627Z,19.96
2022-09-07T17:51:45.448Z,19.90
2022-09-07T17:54:15.733Z,19.81
2022-09-07T17:56:44.089Z,19.73
2022-09-07T18:02:01.945Z,19.56
2022-09-07T18:04:30.199Z,19.47
2022-09-07T18:06:58.271Z,19.41
2022-09-07T18:09:26.349Z,19.37
2022-09-07T18:11:54.365Z,19.31
2022-09-07T18:14:22.318Z,19.27
2022-09-07T18:16:50.786Z,19.23
2022-09-07T18:19:20.729Z,19.18
2022-09-07T18:21:49.526Z,19.16
2022-09-07T18:24:20.074Z,19.12
2022-09-07T18:26:50.121Z,19.10
2022-09-07T18:29:28.655Z,19.06
2022-09-07T18:31:59.554Z,19.01
2022-09-07T18:34:30.933Z,18.98
2022-09-07T18:36:59.697Z,18.96
2022-09-07T18:39:28.277Z,18.96
2022-09-07T18:41:56.639Z,18.95
2022-09-07T18:47:21.730Z,18.93
2022-09-07T18:49:54.663Z,18.94
2022-09-07T18:55:11.412Z,18.91
2022-09-07T18:57:42.319Z,18.88
2022-09-07T19:00:12.563Z,18.83
2022-09-07T19:02:40.563Z,18.79
2022-09-07T19:07:59.603Z,18.67
2022-09-07T19:10:27.750Z,18.60
2022-09-07T19:12:56.382Z,18.58
2022-09-07T19:15:24.328Z,18.56
2022-09-07T19:17:52.340Z,18.59
2022-09-07T19:20:23.024Z,18.59
2022-09-07T19:22:50.941Z,18.61
2022-09-07T19:25:19.384Z,18.60
2022-09-07T19:27:47.437Z,18.60
2022-09-07T19:30:17.540Z,18.58
2022-09-07T19:32:45.681Z,18.58
2022-09-07T19:35:13.664Z,18.56
2022-09-07T19:37:42.981Z,18.50
2022-09-07T19:40:17.114Z,18.45
2022-09-07T19:42:47.002Z,18.37
2022-09-07T19:45:15.813Z,18.26
2022-09-07T19:47:43.927Z,18.19
2022-09-07T19:50:11.922Z,18.12
2022-09-07T19:52:39.926Z,18.09
2022-09-07T19:55:10.408Z,18.01
2022-09-07T19:57:38.351Z,17.99
2022-09-07T20:00:07.660Z,17.97
2022-09-07T20:02:35.591Z,17.94
2022-09-07T20:05:03.630Z,17.92
2022-09-07T20:07:31.679Z,17.90
2022-09-07T20:09:59.735Z,17.86
2022-09-07T20:12:29.197Z,17.82
2022-09-07T20:14:57.163Z,17.79
2022-09-07T20:17:25.204Z,17.76
2022-09-07T20:19:53.185Z,17.76
2022-09-07T20:22:21.345Z,17.74
2022-09-07T20:24:49.306Z,17.71
2022-09-07T20:27:17.323Z,17.67
2022-09-07T20:29:46.898Z,17.59
2022-09-07T20:32:15.207Z,17.53
2022-09-07T20:34:43.311Z,17.47
2022-09-07T20:37:11.449Z,17.45
2022-09-07T20:39:39.816Z,17.43
2022-09-07T20:42:08.894Z,17.41
2022-09-07T20:44:36.959Z,17.38
2022-09-07T20:47:06.652Z,17.35
2022-09-07T20:49:34.819Z,17.36
2022-09-07T20:52:03.057Z,17.35
2022-09-07T20:54:32.534Z,17.34
2022-09-07T20:57:03.897Z,17.31
2022-09-07T20:59:33.037Z,17.30
2022-09-07T21:02:01.065Z,17.26
2022-09-07T21:04:30.460Z,17.20
2022-09-07T21:06:58.420Z,17.14
2022-09-07T21:09:26.460Z,17.04
2022-09-07T21:11:57.188Z,17.00
2022-09-07T21:14:25.343Z,16.95
2022-09-07T21:16:53.401Z,16.92
2022-09-07T21:19:21.553Z,16.89
2022-09-07T21:21:50.974Z,16.87
2022-09-07T21:24:21.252Z,16.87
2022-09-07T21:26:50.511Z,16.85
2022-09-07T21:29:20.306Z,16.85
2022-09-07T21:31:48.802Z,16.85
2022-09-07T21:34:17.726Z,16.85
2022-09-07T21:36:46.144Z,16.83
2022-09-07T21:39:16.347Z,16.80
2022-09-07T21:41:45.131Z,16.76
2022-09-07T21:44:14.988Z,16.75
2022-09-07T21:46:43.662Z,16.70
2022-09-07T21:49:12.081Z,16.60
2022-09-07T21:51:40.448Z,16.52
2022-09-07T21:54:08.558Z,16.49
2022-09-07T21:56:40.122Z,16.49
2022-09-07T21:59:11.052Z,16.50
2022-09-07T22:01:39.152Z,16.51
2022-09-07T22:04:07.521Z,16.51
2022-09-07T22:06:35.982Z,16.51
2022-09-07T22:09:05.281Z,16.48
2022-09-07T22:11:33.473Z,16.43
2022-09-07T22:14:04.485Z,16.41
2022-09-07T22:16:34.074Z,16.43
2022-09-07T22:19:02.503Z,16.48
2022-09-07T22:21:31.799Z,16.53
2022-09-07T22:24:01.679Z,16.59
2022-09-07T22:26:31.955Z,16.68
2022-09-07T22:29:00.397Z,16.76
2022-09-07T22:31:31.890Z,16.83
2022-09-07T22:34:00.916Z,16.91
2022-09-07T22:36:30.709Z,16.98
2022-09-07T22:39:00.857Z,17.08
2022-09-07T22:41:30.804Z,17.13
2022-09-07T22:43:59.385Z,17.18
2022-09-07T22:46:31.190Z,17.23
2022-09-07T22:49:00.367Z,17.25
2022-09-07T22:51:28.828Z,17.26
2022-09-07T22:53:57.348Z,17.21
2022-09-07T22:56:27.284Z,17.18
2022-09-07T22:58:57.711Z,17.20
2022-09-07T23:01:26.558Z,17.23
2022-09-07T23:03:56.897Z,17.27
2022-09-07T23:06:26.439Z,17.28
2022-09-07T23:08:55.764Z,17.26
2022-09-07T23:11:24.921Z,17.29
2022-09-07T23:13:54.081Z,17.30
2022-09-07T23:16:22.834Z,17.29
2022-09-07T23:18:51.797Z,17.27
2022-09-07T23:21:21.580Z,17.30
2022-09-07T23:23:53.703Z,17.36
2022-09-07T23:26:23.454Z,17.41
2022-09-07T23:28:53.645Z,17.46
2022-09-07T23:31:21.951Z,17.49
2022-09-07T23:33:50.265Z,17.51
2022-09-07T23:36:22.988Z,17.54
2022-09-07T23:38:51.460Z,17.55
2022-09-07T23:41:19.492Z,17.58
2022-09-07T23:43:48.427Z,17.58
2022-09-07T23:46:18.702Z,17.60
2022-09-07T23:48:47.357Z,17.62
2022-09-07T23:51:19.939Z,17.62
2022-09-07T23:53:51.032Z,17.63
2022-09-07T23:56:19.128Z,17.63
2022-09-07T23:58:47.515Z,17.60
